Time;durP1;ratioP1;P1;durP2;ratioP2;P2;SDS_P1;SDS_P2;PMS_P1;PMS_P2;Temp;Humidity;BMP_temperature;BMP_pressure;BME280_temperature;BME280_humidity;BME280_pressure;Samples;Min_cycle;Max_cycle;Signal;HPM_P1;HPM_P2
2023/12/14 00:01:17;;;;;;;41.20;23.33;;;10.00;1.00;;;;;;6215853;23;20150;-83
2023/12/14 00:03:46;;;;;;;41.10;25.03;;;10.00;1.00;;;;;;6214075;23;20181;-84
2023/12/14 00:06:12;;;;;;;43.50;24.03;;;10.10;1.00;;;;;;6216217;23;20158;-83
2023/12/14 00:08:38;;;;;;;38.20;24.00;;;10.10;1.00;;;;;;6215095;23;20378;-85
2023/12/14 00:11:05;;;;;;;42.83;23.33;;;10.10;1.00;;;;;;6215309;23;20453;-83
2023/12/14 00:13:30;;;;;;;38.53;23.07;;;10.10;1.00;;;;;;6215403;23;20436;-84
2023/12/14 00:15:56;;;;;;;43.07;25.83;;;10.10;1.00;;;;;;6215684;23;20428;-84
2023/12/14 00:18:21;;;;;;;47.33;25.57;;;10.10;1.00;;;;;;6214985;23;20154;-84
2023/12/14 00:20:48;;;;;;;43.27;25.53;;;10.10;1.00;;;;;;6214780;23;20532;-82
2023/12/14 00:23:13;;;;;;;45.60;25.37;;;10.10;1.00;;;;;;6216186;23;20166;-83
2023/12/14 00:25:39;;;;;;;42.67;24.37;;;10.10;1.00;;;;;;6214677;23;20887;-83
2023/12/14 00:28:04;;;;;;;46.13;27.20;;;10.10;1.00;;;;;;6215843;23;20162;-83
2023/12/14 00:30:30;;;;;;;48.20;25.00;;;10.10;1.00;;;;;;6217919;23;20154;-83
2023/12/14 00:32:55;;;;;;;42.57;24.83;;;10.10;1.00;;;;;;6217547;23;20170;-83
2023/12/14 00:35:21;;;;;;;55.60;25.87;;;10.10;1.00;;;;;;6215245;23;20177;-84
2023/12/14 00:37:46;;;;;;;48.17;25.33;;;10.10;1.00;;;;;;6217115;23;20193;-84
2023/12/14 00:40:12;;;;;;;47.77;25.57;;;10.10;1.00;;;;;;6217814;23;20181;-83
2023/12/14 00:42:37;;;;;;;45.60;26.67;;;10.10;1.00;;;;;;6218053;23;20173;-84
2023/12/14 00:45:03;;;;;;;40.63;25.17;;;10.10;1.00;;;;;;6216061;23;20225;-83
2023/12/14 00:47:29;;;;;;;45.60;24.97;;;10.10;1.00;;;;;;6216202;23;20260;-83
2023/12/14 00:49:54;;;;;;;45.30;23.67;;;10.10;1.00;;;;;;6217894;23;20380;-83
2023/12/14 00:52:20;;;;;;;41.20;23.13;;;10.10;1.00;;;;;;6216060;23;20533;-82
2023/12/14 00:54:45;;;;;;;39.30;22.20;;;10.10;1.00;;;;;;6218188;23;20709;-83
2023/12/14 00:57:11;;;;;;;41.73;23.47;;;10.00;1.00;;;;;;6217595;23;20533;-82
2023/12/14 00:59:36;;;;;;;39.73;22.40;;;10.00;1.00;;;;;;6217895;23;20229;-84
2023/12/14 01:02:02;;;;;;;34.70;21.37;;;10.00;1.00;;;;;;6215292;23;20154;-84
2023/12/14 01:04:27;;;;;;;31.73;19.37;;;10.00;1.00;;;;;;6214587;23;20158;-83
2023/12/14 01:06:53;;;;;;;34.50;19.90;;;10.00;1.00;;;;;;6217043;23;20178;-83
2023/12/14 01:09:18;;;;;;;38.70;19.60;;;10.00;1.00;;;;;;6215092;23;20277;-83
2023/12/14 01:11:44;;;;;;;28.77;17.10;;;10.10;1.00;;;;;;6216187;23;20214;-83
2023/12/14 01:14:09;;;;;;;28.90;16.63;;;10.10;1.00;;;;;;6215232;23;20589;-83
2023/12/14 01:16:35;;;;;;;24.03;15.47;;;10.00;1.00;;;;;;6216149;23;20192;-85
2023/12/14 01:19:00;;;;;;;24.73;15.87;;;10.00;1.00;;;;;;6216097;23;20150;-82
2023/12/14 01:21:26;;;;;;;29.37;16.10;;;10.00;1.00;;;;;;6214766;23;20204;-82
2023/12/14 01:23:52;;;;;;;31.37;18.23;;;10.00;1.00;;;;;;6216808;23;20170;-85
2023/12/14 01:26:18;;;;;;;28.70;16.60;;;10.00;1.00;;;;;;6217484;23;20219;-84
2023/12/14 01:28:43;;;;;;;30.17;16.23;;;9.90;1.00;;;;;;6216491;23;20381;-83
2023/12/14 01:31:09;;;;;;;26.53;15.13;;;9.90;1.00;;;;;;6215066;23;20404;-83
2023/12/14 01:33:34;;;;;;;28.97;17.60;;;9.90;1.00;;;;;;6216239;23;20182;-83
2023/12/14 01:36:00;;;;;;;27.40;15.20;;;9.90;1.00;;;;;;6215163;23;20526;-85
2023/12/14 01:38:25;;;;;;;21.20;13.80;;;9.90;1.00;;;;;;6216178;23;20157;-83
2023/12/14 01:40:51;;;;;;;28.93;14.80;;;9.90;1.00;;;;;;6215062;23;20193;-82
2023/12/14 01:43:16;;;;;;;21.80;13.33;;;9.90;1.00;;;;;;6218104;23;20177;-84
2023/12/14 01:45:42;;;;;;;18.37;12.00;;;9.80;1.00;;;;;;6217583;23;20175;-82
2023/12/14 01:48:07;;;;;;;19.70;12.40;;;9.80;1.00;;;;;;6218570;23;20233;-84
2023/12/14 01:50:33;;;;;;;20.00;12.00;;;9.80;1.00;;;;;;6219209;23;20228;-84
2023/12/14 01:52:58;;;;;;;23.47;13.20;;;9.80;1.00;;;;;;6217157;23;20174;-82
2023/12/14 01:55:25;;;;;;;22.80;13.37;;;9.80;1.00;;;;;;6219631;23;20174;-84
2023/12/14 01:57:51;;;;;;;21.07;12.40;;;9.80;1.00;;;;;;6219012;23;20146;-83
2023/12/14 02:00:34;;;;;;;22.47;12.83;;;9.70;1.00;;;;;;6217442;23;20431;-84
2023/12/14 02:03:00;;;;;;;19.53;12.20;;;9.70;1.00;;;;;;6215825;23;20252;-84
2023/12/14 02:05:25;;;;;;;23.03;13.17;;;9.70;1.00;;;;;;6219522;23;20747;-84
2023/12/14 02:07:51;;;;;;;19.53;12.70;;;9.70;1.00;;;;;;6220143;23;20154;-82
2023/12/14 02:10:16;;;;;;;22.97;13.10;;;9.70;1.00;;;;;;6219770;23;20150;-83
2023/12/14 02:12:42;;;;;;;22.20;13.30;;;9.60;1.00;;;;;;6217906;23;20199;-82
2023/12/14 02:15:08;;;;;;;22.50;13.00;;;9.60;1.00;;;;;;6217681;23;20178;-82
2023/12/14 02:17:34;;;;;;;19.43;10.97;;;9.50;1.00;;;;;;6217502;23;20158;-84
2023/12/14 02:20:00;;;;;;;25.17;12.70;;;9.50;1.00;;;;;;6217545;23;21070;-83
2023/12/14 02:22:26;;;;;;;25.80;12.87;;;9.50;1.00;;;;;;6219582;23;20166;-84
2023/12/14 02:24:52;;;;;;;23.90;13.10;;;9.40;1.00;;;;;;6219943;23;20817;-84
2023/12/14 02:27:17;;;;;;;26.37;14.70;;;9.40;1.00;;;;;;6217467;23;20392;-83
2023/12/14 02:29:43;;;;;;;28.87;14.37;;;9.40;1.00;;;;;;6213769;23;20158;-83
2023/12/14 02:32:08;;;;;;;28.20;15.87;;;9.30;1.00;;;;;;6213735;23;20196;-80
2023/12/14 02:34:34;;;;;;;29.37;14.50;;;9.40;1.00;;;;;;6215845;23;20157;-84
2023/12/14 02:36:59;;;;;;;27.80;15.60;;;9.30;1.00;;;;;;6214816;23;20161;-84
2023/12/14 02:39:25;;;;;;;29.87;16.10;;;9.30;1.00;;;;;;6215988;23;20610;-83
2023/12/14 02:41:50;;;;;;;28.17;14.20;;;9.30;1.00;;;;;;6215770;23;20154;-81
2023/12/14 02:44:16;;;;;;;31.17;16.60;;;9.30;1.00;;;;;;6218729;23;20197;-85
2023/12/14 02:46:41;;;;;;;27.83;15.67;;;9.20;1.00;;;;;;6220070;23;20165;-85
2023/12/14 02:49:07;;;;;;;25.47;14.20;;;9.20;1.00;;;;;;6218998;23;20174;-83
2023/12/14 02:51:32;;;;;;;28.87;14.20;;;9.20;1.00;;;;;;6216334;23;20277;-84
2023/12/14 02:53:58;;;;;;;30.20;15.70;;;9.20;1.00;;;;;;6215068;23;20259;-83
2023/12/14 02:56:24;;;;;;;29.03;15.77;;;9.20;1.00;;;;;;6215600;23;20174;-82
2023/12/14 02:58:51;;;;;;;31.10;16.30;;;9.20;1.00;;;;;;6215092;23;20153;-82
2023/12/14 03:01:20;;;;;;;33.30;17.77;;;9.20;1.00;;;;;;6215953;23;20889;-83
2023/12/14 03:03:46;;;;;;;32.60;16.67;;;9.20;1.00;;;;;;6214000;23;20409;-83
2023/12/14 03:06:11;;;;;;;32.20;17.13;;;9.20;1.00;;;;;;6215558;23;20872;-82
2023/12/14 03:08:37;;;;;;;31.50;17.60;;;9.20;1.00;;;;;;6215187;23;20169;-83
2023/12/14 03:11:02;;;;;;;28.80;17.00;;;9.10;1.00;;;;;;6213884;23;20644;-82
2023/12/14 03:13:28;;;;;;;31.60;17.83;;;9.10;1.00;;;;;;6216092;23;20170;-83
2023/12/14 03:15:54;;;;;;;34.90;19.70;;;9.10;1.00;;;;;;6215825;23;20178;-83
2023/12/14 03:18:19;;;;;;;32.73;16.90;;;9.10;1.00;;;;;;6215643;23;20192;-84
2023/12/14 03:20:45;;;;;;;39.17;19.23;;;9.10;1.00;;;;;;6216185;23;20641;-82
2023/12/14 03:23:10;;;;;;;36.47;18.07;;;9.10;1.00;;;;;;6215283;23;20197;-83
2023/12/14 03:25:36;;;;;;;30.00;17.50;;;9.00;1.00;;;;;;6213698;23;20188;-84
2023/12/14 03:28:01;;;;;;;33.40;18.27;;;9.00;1.00;;;;;;6214378;23;20541;-83
2023/12/14 03:30:27;;;;;;;39.17;18.43;;;9.10;1.00;;;;;;6216070;23;20161;-83
2023/12/14 03:32:52;;;;;;;37.70;18.47;;;9.00;1.00;;;;;;6215215;23;20555;-83
2023/12/14 03:35:18;;;;;;;33.60;16.60;;;9.00;1.00;;;;;;6213051;22;20273;-86
2023/12/14 03:37:43;;;;;;;28.80;15.60;;;9.00;1.00;;;;;;6212580;23;20161;-85
2023/12/14 03:40:09;;;;;;;30.13;15.37;;;9.00;1.00;;;;;;6213014;23;20146;-87
2023/12/14 03:42:35;;;;;;;33.63;17.33;;;9.00;1.00;;;;;;6220599;23;20146;-87
2023/12/14 03:45:00;;;;;;;33.70;15.80;;;9.00;1.00;;;;;;6225572;23;20460;-86
2023/12/14 03:47:26;;;;;;;33.83;16.60;;;9.00;1.00;;;;;;6221700;23;20373;-85
2023/12/14 03:49:52;;;;;;;32.50;16.83;;;8.90;1.00;;;;;;6217856;23;20154;-86
2023/12/14 03:52:17;;;;;;;37.83;20.40;;;8.90;1.00;;;;;;6213541;23;20150;-86
2023/12/14 03:54:43;;;;;;;29.50;16.27;;;8.90;1.00;;;;;;6213735;23;20196;-86
2023/12/14 03:57:09;;;;;;;30.83;18.43;;;8.90;1.00;;;;;;6214203;23;20157;-86
2023/12/14 03:59:38;;;;;;;28.70;16.30;;;8.90;1.00;;;;;;6212085;23;20389;-87
2023/12/14 04:02:04;;;;;;;32.50;17.20;;;8.90;1.00;;;;;;6214523;23;20150;-86
2023/12/14 04:04:30;;;;;;;38.03;18.93;;;8.90;1.00;;;;;;6215199;23;20449;-86
2023/12/14 04:06:55;;;;;;;32.70;18.97;;;8.90;1.00;;;;;;6211681;23;20165;-86
2023/12/14 04:09:21;;;;;;;32.90;18.30;;;8.90;1.00;;;;;;6214072;23;20242;-86
2023/12/14 04:11:46;;;;;;;36.60;18.17;;;8.90;1.00;;;;;;6215495;23;20556;-87
2023/12/14 04:14:12;;;;;;;35.77;17.97;;;8.80;1.00;;;;;;6213842;23;20146;-86
2023/12/14 04:16:37;;;;;;;34.30;17.97;;;8.80;1.00;;;;;;6213827;23;20182;-86
2023/12/14 04:19:03;;;;;;;30.80;16.43;;;8.80;1.00;;;;;;6215216;23;20151;-86
2023/12/14 04:21:28;;;;;;;33.33;17.90;;;8.80;1.00;;;;;;6213799;23;20150;-88
2023/12/14 04:23:54;;;;;;;32.03;16.87;;;8.80;1.00;;;;;;6214816;23;20178;-86
2023/12/14 04:26:19;;;;;;;32.73;17.97;;;8.80;1.00;;;;;;6215570;23;20177;-88
2023/12/14 04:28:46;;;;;;;32.27;18.27;;;8.80;1.00;;;;;;6214828;23;20150;-87
2023/12/14 04:31:11;;;;;;;35.57;18.43;;;8.80;1.00;;;;;;6213568;23;20602;-86
2023/12/14 04:33:37;;;;;;;34.80;17.63;;;8.80;1.00;;;;;;6215183;23;20435;-86
2023/12/14 04:36:03;;;;;;;37.33;18.47;;;8.70;1.00;;;;;;6214904;23;20638;-86
2023/12/14 04:38:28;;;;;;;47.90;21.73;;;8.70;1.00;;;;;;6212482;23;20162;-84
2023/12/14 04:40:54;;;;;;;49.33;24.17;;;8.60;1.00;;;;;;6212880;23;20381;-83
2023/12/14 04:43:19;;;;;;;49.90;23.30;;;8.60;1.00;;;;;;6214909;23;20161;-84
2023/12/14 04:45:45;;;;;;;53.97;25.63;;;8.60;1.00;;;;;;6214493;23;20729;-84
2023/12/14 04:48:10;;;;;;;42.40;22.23;;;8.50;1.00;;;;;;6214495;23;20184;-84
2023/12/14 04:50:36;;;;;;;39.57;21.80;;;8.50;1.00;;;;;;6212736;23;20241;-85
2023/12/14 04:53:01;;;;;;;43.90;20.57;;;8.40;1.00;;;;;;6212988;23;20158;-85
2023/12/14 04:55:27;;;;;;;37.30;19.70;;;8.50;1.00;;;;;;6212924;23;20189;-84
2023/12/14 04:57:53;;;;;;;34.87;18.00;;;8.50;1.00;;;;;;6214799;23;20468;-84
2023/12/14 05:00:18;;;;;;;31.40;16.47;;;8.50;1.00;;;;;;6215371;23;20200;-85
2023/12/14 05:02:48;;;;;;;24.93;14.60;;;8.50;1.00;;;;;;6213199;23;20417;-84
2023/12/14 05:05:14;;;;;;;26.30;15.20;;;8.50;1.00;;;;;;6213389;23;20209;-84
2023/12/14 05:07:39;;;;;;;24.57;14.30;;;8.50;1.00;;;;;;6214897;23;20404;-84
2023/12/14 05:10:05;;;;;;;30.30;16.60;;;8.60;1.00;;;;;;6214956;23;20181;-86
2023/12/14 05:12:31;;;;;;;29.93;14.47;;;8.50;1.00;;;;;;6213549;23;20169;-86
2023/12/14 05:14:57;;;;;;;31.93;15.40;;;8.60;1.00;;;;;;6214180;23;20933;-86
2023/12/14 05:17:22;;;;;;;28.57;15.03;;;8.60;1.00;;;;;;6215495;23;20586;-86
2023/12/14 05:19:48;;;;;;;24.27;13.50;;;8.60;1.00;;;;;;6219377;23;20153;-86
2023/12/14 05:22:13;;;;;;;28.67;14.20;;;8.60;1.00;;;;;;6213338;23;20151;-87
2023/12/14 05:24:39;;;;;;;32.77;15.97;;;8.60;1.00;;;;;;6214283;23;20172;-86
2023/12/14 05:27:04;;;;;;;31.20;14.90;;;8.60;1.00;;;;;;6214864;23;20214;-86
2023/12/14 05:29:35;;;;;;;26.87;14.43;;;8.60;1.00;;;;;;6214397;23;20589;-87
2023/12/14 05:32:01;;;;;;;25.27;13.83;;;8.60;1.00;;;;;;6213303;23;20149;-86
2023/12/14 05:34:26;;;;;;;19.77;12.40;;;8.60;1.00;;;;;;6213892;23;20719;-87
2023/12/14 05:36:52;;;;;;;27.13;14.70;;;8.60;1.00;;;;;;6214594;23;20142;-86
2023/12/14 05:39:17;;;;;;;23.93;13.80;;;8.60;1.00;;;;;;6212867;23;20158;-86
2023/12/14 05:41:44;;;;;;;25.27;13.43;;;8.60;1.00;;;;;;6214800;23;20150;-87
2023/12/14 05:44:09;;;;;;;22.10;12.63;;;8.60;1.00;;;;;;6214319;23;20196;-87
2023/12/14 05:46:35;;;;;;;20.40;12.67;;;8.60;1.00;;;;;;6215178;23;20405;-87
2023/12/14 05:49:01;;;;;;;26.33;13.40;;;8.50;1.00;;;;;;6213154;23;20154;-86
2023/12/14 05:51:31;;;;;;;26.33;15.30;;;8.50;1.00;;;;;;6214758;23;20468;-86
2023/12/14 05:53:57;;;;;;;35.70;18.23;;;8.40;1.00;;;;;;6213385;23;20162;-86
2023/12/14 05:56:22;;;;;;;36.97;16.60;;;8.40;1.00;;;;;;6215844;23;20920;-86
2023/12/14 05:58:48;;;;;;;35.60;16.83;;;8.40;1.00;;;;;;6213195;23;20474;-87
2023/12/14 06:01:17;;;;;;;51.80;21.97;;;8.40;1.00;;;;;;6214363;23;20173;-86
2023/12/14 06:03:42;;;;;;;58.00;23.87;;;8.30;1.00;;;;;;6214852;23;20392;-86
2023/12/14 06:06:10;;;;;;;49.70;22.63;;;8.30;1.00;;;;;;6213272;23;20441;-87
2023/12/14 06:08:35;;;;;;;45.60;20.67;;;8.20;1.00;;;;;;6213827;23;20552;-88
2023/12/14 06:11:01;;;;;;;39.83;18.77;;;8.20;1.00;;;;;;6214439;23;20411;-87
2023/12/14 06:13:26;;;;;;;30.93;16.33;;;8.10;1.00;;;;;;6213211;23;20189;-87
2023/12/14 06:15:52;;;;;;;37.30;17.50;;;8.10;1.00;;;;;;6214743;23;20629;-86
2023/12/14 06:18:18;;;;;;;42.23;20.93;;;8.00;1.00;;;;;;6214814;23;20150;-86
2023/12/14 06:20:43;;;;;;;37.10;17.43;;;7.90;1.00;;;;;;6214995;23;20174;-86
2023/12/14 06:23:09;;;;;;;56.80;24.80;;;7.80;1.00;;;;;;6214237;23;20147;-86
2023/12/14 06:25:34;;;;;;;43.37;19.90;;;7.80;1.00;;;;;;6214420;23;20555;-86
2023/12/14 06:28:00;;;;;;;44.67;19.10;;;7.80;1.00;;;;;;6214478;23;20479;-86
2023/12/14 06:30:25;;;;;;;39.43;18.30;;;7.80;1.00;;;;;;6213908;23;20150;-87
2023/12/14 06:32:51;;;;;;;44.83;19.10;;;7.80;1.00;;;;;;6213906;23;20161;-86
2023/12/14 06:35:16;;;;;;;37.70;19.70;;;7.70;1.00;;;;;;6212855;23;20197;-86
2023/12/14 06:37:42;;;;;;;37.27;17.80;;;7.70;1.00;;;;;;6213521;23;20150;-87
2023/12/14 06:40:08;;;;;;;52.30;20.87;;;7.70;1.00;;;;;;6213137;23;20154;-86
2023/12/14 06:42:34;;;;;;;43.87;19.87;;;7.60;1.00;;;;;;6211737;23;20240;-87
2023/12/14 06:45:02;;;;;;;42.23;17.90;;;7.60;1.00;;;;;;6213327;23;20425;-86
2023/12/14 06:47:28;;;;;;;38.15;18.83;;;7.60;1.00;;;;;;6213441;23;20206;-87
2023/12/14 06:49:54;;;;;;;39.57;19.27;;;7.60;1.00;;;;;;6219542;23;20150;-89
2023/12/14 06:52:19;;;;;;;52.33;23.57;;;7.60;1.00;;;;;;6213814;23;20437;-87
2023/12/14 06:54:48;;;;;;;49.63;21.80;;;7.50;1.00;;;;;;6212251;23;20197;-87
2023/12/14 06:57:14;;;;;;;47.33;20.80;;;7.50;1.00;;;;;;6212446;23;20214;-87
2023/12/14 06:59:39;;;;;;;57.53;24.80;;;7.50;1.00;;;;;;6213658;23;20404;-86
2023/12/14 07:02:06;;;;;;;69.27;32.23;;;7.50;1.00;;;;;;6211672;23;20154;-87
2023/12/14 07:04:31;;;;;;;89.53;43.83;;;7.50;1.00;;;;;;6213162;23;20157;-87
2023/12/14 07:06:58;;;;;;;96.47;45.30;;;7.50;1.00;;;;;;6212252;23;20590;-88
2023/12/14 07:09:24;;;;;;;108.10;43.20;;;7.50;1.00;;;;;;6213205;23;20154;-87
2023/12/14 07:11:49;;;;;;;54.17;25.73;;;7.50;1.00;;;;;;6212709;23;20786;-87
2023/12/14 07:14:15;;;;;;;48.70;22.00;;;7.40;1.00;;;;;;6211201;23;20385;-87
2023/12/14 07:16:44;;;;;;;40.03;20.00;;;7.30;1.00;;;;;;6213391;23;20181;-87
2023/12/14 07:19:11;;;;;;;35.88;19.27;;;7.30;1.00;;;;;;6212672;23;20169;-87
2023/12/14 07:21:36;;;;;;;36.13;19.17;;;7.30;1.00;;;;;;6212400;23;20159;-86
2023/12/14 07:24:02;;;;;;;37.23;21.20;;;7.30;1.00;;;;;;6211059;23;20408;-88
2023/12/14 07:26:30;;;;;;;36.83;18.57;;;7.30;1.00;;;;;;6213657;23;20170;-86
2023/12/14 07:28:55;;;;;;;36.30;20.30;;;7.40;1.00;;;;;;6211420;23;20169;-86
2023/12/14 07:31:21;;;;;;;39.33;19.80;;;7.30;1.00;;;;;;6212285;23;20158;-86
2023/12/14 07:33:47;;;;;;;33.17;20.63;;;7.40;1.00;;;;;;6211229;23;20244;-87
2023/12/14 07:36:12;;;;;;;30.60;17.00;;;7.40;1.00;;;;;;6212977;23;20541;-86
2023/12/14 07:38:38;;;;;;;30.90;17.50;;;7.50;1.00;;;;;;6215980;23;20605;-87
2023/12/14 07:41:03;;;;;;;38.90;18.43;;;7.50;1.00;;;;;;6213160;23;20939;-86
2023/12/14 07:43:29;;;;;;;32.03;16.70;;;7.60;1.00;;;;;;6215588;23;20150;-88
2023/12/14 07:45:54;;;;;;;26.30;16.73;;;7.60;1.00;;;;;;6214514;23;20170;-86
2023/12/14 07:48:20;;;;;;;32.90;18.50;;;7.60;1.00;;;;;;6213956;23;20240;-86
2023/12/14 07:50:48;;;;;;;34.30;20.47;;;7.60;1.00;;;;;;6214056;23;20158;-87
2023/12/14 07:53:14;;;;;;;30.47;17.53;;;7.70;1.00;;;;;;6215634;23;20185;-87
2023/12/14 07:55:39;;;;;;;30.93;18.60;;;7.70;1.00;;;;;;6213924;23;20574;-86
2023/12/14 07:58:05;;;;;;;34.40;19.83;;;7.80;1.00;;;;;;6213238;23;20161;-86
2023/12/14 08:00:30;;;;;;;31.30;18.37;;;7.80;1.00;;;;;;6213711;23;20155;-86
2023/12/14 08:02:56;;;;;;;33.77;18.77;;;7.80;1.00;;;;;;6215236;23;20225;-87
2023/12/14 08:05:21;;;;;;;44.07;24.83;;;7.80;1.00;;;;;;6214080;23;20177;-86
2023/12/14 08:07:47;;;;;;;36.37;21.47;;;7.80;1.00;;;;;;6215532;23;20154;-86
2023/12/14 08:10:13;;;;;;;44.47;26.70;;;7.90;1.00;;;;;;6212983;23;20162;-86
2023/12/14 08:12:38;;;;;;;37.70;20.60;;;7.90;1.00;;;;;;6213879;23;20447;-87
2023/12/14 08:15:04;;;;;;;33.80;19.33;;;7.80;1.00;;;;;;6215478;23;20178;-86
2023/12/14 08:17:30;;;;;;;48.70;28.27;;;7.70;1.00;;;;;;6216333;23;20150;-86
2023/12/14 08:19:55;;;;;;;45.40;26.33;;;7.80;1.00;;;;;;6215454;23;20392;-86
2023/12/14 08:22:21;;;;;;;42.07;22.87;;;7.80;1.00;;;;;;6220126;23;20151;-87
2023/12/14 08:24:48;;;;;;;29.33;17.97;;;7.80;1.00;;;;;;6218358;23;20253;-88
2023/12/14 08:27:13;;;;;;;31.07;19.20;;;7.80;1.00;;;;;;6215267;23;20434;-86
2023/12/14 08:29:39;;;;;;;30.70;19.57;;;7.80;1.00;;;;;;6216904;23;20456;-86
2023/12/14 08:32:05;;;;;;;23.93;15.10;;;7.80;1.00;;;;;;6219503;23;20153;-86
2023/12/14 08:34:30;;;;;;;26.43;17.47;;;7.70;1.00;;;;;;6219944;23;20193;-86
2023/12/14 08:36:56;;;;;;;24.97;15.50;;;7.70;1.00;;;;;;6220646;23;20366;-86
2023/12/14 08:39:22;;;;;;;33.23;19.73;;;7.80;1.00;;;;;;6219514;23;20237;-85
2023/12/14 08:41:48;;;;;;;37.17;22.50;;;7.80;1.00;;;;;;6219648;23;20240;-86
2023/12/14 08:44:14;;;;;;;34.70;21.40;;;7.80;1.00;;;;;;6218884;23;20153;-86
2023/12/14 08:46:45;;;;;;;30.13;18.60;;;7.70;1.00;;;;;;6219041;23;20405;-86
2023/12/14 08:49:11;;;;;;;37.97;20.60;;;7.70;1.00;;;;;;6219152;23;20393;-86
2023/12/14 08:51:38;;;;;;;30.83;17.87;;;7.70;1.00;;;;;;6220446;23;20405;-86
2023/12/14 08:54:04;;;;;;;33.77;22.10;;;7.70;1.00;;;;;;6219390;23;20377;-86
2023/12/14 08:56:29;;;;;;;32.30;20.53;;;7.70;1.00;;;;;;6219148;23;20420;-86
2023/12/14 08:58:55;;;;;;;34.97;21.00;;;7.80;1.00;;;;;;6218626;23;20394;-86
2023/12/14 09:01:21;;;;;;;31.73;18.60;;;7.80;1.00;;;;;;6218935;23;20173;-86
2023/12/14 09:03:47;;;;;;;42.70;23.97;;;7.80;1.00;;;;;;6219453;23;20158;-85
2023/12/14 09:06:12;;;;;;;44.57;27.27;;;7.80;1.00;;;;;;6220422;23;20432;-84
2023/12/14 09:08:39;;;;;;;31.13;18.40;;;7.80;1.00;;;;;;6217121;23;20150;-85
2023/12/14 09:11:05;;;;;;;35.07;19.07;;;7.80;1.00;;;;;;6215470;23;20200;-85
2023/12/14 09:13:30;;;;;;;35.60;21.40;;;7.70;1.00;;;;;;6215266;23;20397;-85
2023/12/14 09:15:56;;;;;;;39.50;23.43;;;7.70;1.00;;;;;;6221365;23;20178;-85
2023/12/14 09:18:22;;;;;;;39.53;24.77;;;7.70;1.00;;;;;;6227011;23;20203;-86
2023/12/14 09:20:49;;;;;;;45.30;27.07;;;7.70;1.00;;;;;;6227533;23;20150;-86
2023/12/14 09:23:15;;;;;;;34.27;19.80;;;7.70;1.00;;;;;;6224931;23;20440;-86
2023/12/14 09:25:41;;;;;;;37.50;21.47;;;7.80;1.00;;;;;;6223951;23;20428;-85
2023/12/14 09:28:07;;;;;;;43.97;27.13;;;7.90;1.00;;;;;;6221399;23;20381;-86
2023/12/14 09:30:32;;;;;;;42.10;25.20;;;7.90;1.00;;;;;;6218187;23;20154;-86
2023/12/14 09:32:58;;;;;;;33.83;21.30;;;8.00;1.00;;;;;;6216049;23;20879;-86
2023/12/14 09:35:23;;;;;;;38.20;23.07;;;8.10;1.00;;;;;;6216939;23;20205;-86
2023/12/14 09:37:49;;;;;;;35.17;21.17;;;8.00;1.00;;;;;;6218677;23;20223;-86
2023/12/14 09:40:16;;;;;;;38.93;24.17;;;8.10;1.00;;;;;;6218662;23;20168;-86
2023/12/14 09:42:42;;;;;;;39.73;23.50;;;8.20;1.00;;;;;;6215211;23;20428;-86
2023/12/14 09:45:11;;;;;;;37.60;21.40;;;8.20;1.00;;;;;;6216856;23;20916;-86
2023/12/14 09:47:38;;;;;;;33.10;20.70;;;8.30;1.00;;;;;;6218515;23;20146;-86
2023/12/14 09:50:04;;;;;;;29.13;17.97;;;8.30;99.90;;;;;;6221116;23;20369;-84
2023/12/14 09:52:31;;;;;;;26.13;16.70;;;8.30;99.90;;;;;;6218359;23;20695;-86
2023/12/14 09:54:56;;;;;;;27.85;17.33;;;8.20;99.90;;;;;;6216226;23;20428;-86
2023/12/14 09:57:22;;;;;;;29.60;18.27;;;8.00;99.90;;;;;;6217303;23;20151;-86
2023/12/14 09:59:52;;;;;;;29.90;19.40;;;8.00;99.90;;;;;;6216747;23;20233;-86
2023/12/14 10:02:18;;;;;;;27.67;16.85;;;7.90;99.90;;;;;;6218207;23;20385;-86
2023/12/14 10:04:43;;;;;;;25.27;16.67;;;7.80;99.90;;;;;;6218063;23;20704;-86
2023/12/14 10:07:09;;;;;;;27.50;17.10;;;7.70;99.90;;;;;;6216521;23;20146;-85
2023/12/14 10:09:37;;;;;;;29.00;17.77;;;7.60;1.00;;;;;;6217735;23;20210;-86
2023/12/14 10:12:05;;;;;;;29.83;16.77;;;7.60;1.00;;;;;;6215871;23;20411;-85
2023/12/14 10:14:31;;;;;;;27.83;17.73;;;7.50;1.00;;;;;;6216092;23;20373;-85
2023/12/14 10:16:56;;;;;;;31.08;17.85;;;7.40;1.00;;;;;;6209620;23;20376;-86
2023/12/14 10:19:22;;;;;;;30.67;16.97;;;7.40;1.00;;;;;;6217570;23;20160;-85
2023/12/14 10:21:49;;;;;;;35.57;19.03;;;7.40;1.00;;;;;;6216824;23;20225;-86
2023/12/14 10:24:15;;;;;;;27.35;16.15;;;7.50;1.00;;;;;;6217828;23;20154;-86
2023/12/14 10:26:40;;;;;;;25.98;16.42;;;7.60;1.00;;;;;;6218172;23;20232;-86
2023/12/14 10:29:06;;;;;;;27.63;16.90;;;7.60;1.00;;;;;;6218613;23;20150;-86
2023/12/14 10:31:37;;;;;;;32.38;18.13;;;7.60;1.00;;;;;;6216687;23;20150;-84
2023/12/14 10:34:05;;;;;;;30.33;17.17;;;7.50;1.00;;;;;;6215908;23;20169;-86
2023/12/14 10:36:32;;;;;;;27.35;17.60;;;7.50;1.00;;;;;;6218059;23;20268;-83
2023/12/14 10:38:59;;;;;;;38.00;18.50;;;7.50;1.00;;;;;;6217809;23;20181;-84
2023/12/14 10:41:24;;;;;;;26.57;16.60;;;7.60;1.00;;;;;;6214040;23;20854;-84
2023/12/14 10:43:54;;;;;;;27.97;16.87;;;7.70;1.00;;;;;;6217473;23;20397;-86
2023/12/14 10:46:21;;;;;;;27.63;16.00;;;7.80;1.00;;;;;;6216646;23;20421;-86
2023/12/14 10:48:53;;;;;;;24.83;16.97;;;7.80;1.00;;;;;;6215614;23;20369;-84
2023/12/14 10:51:20;;;;;;;27.27;16.00;;;7.90;1.00;;;;;;6213137;23;20386;-84
2023/12/14 10:53:48;;;;;;;26.07;16.33;;;7.90;1.00;;;;;;6215809;23;20369;-85
2023/12/14 10:56:13;;;;;;;26.90;16.87;;;7.90;99.90;;;;;;6211301;23;20975;-85
2023/12/14 10:58:58;;;;;;;25.63;15.67;;;7.80;99.90;;;;;;6214302;23;20395;-86
2023/12/14 11:01:24;;;;;;;27.63;16.48;;;7.80;99.90;;;;;;6215095;23;20767;-85
2023/12/14 11:03:55;;;;;;;25.37;16.23;;;7.90;1.00;;;;;;6216512;23;20186;-85
2023/12/14 11:06:29;;;;;;;36.13;20.67;;;8.00;99.90;;;;;;6217363;23;20503;-85
2023/12/14 11:08:58;;;;;;;36.33;21.60;;;8.00;99.90;;;;;;6216743;23;20364;-85
2023/12/14 11:11:28;;;;;;;35.47;20.27;;;8.10;99.90;;;;;;6214586;23;20369;-86
2023/12/14 11:13:53;;;;;;;27.17;15.80;;;8.30;99.90;;;;;;6212241;23;20403;-86
2023/12/14 11:16:26;;;;;;;23.60;14.00;;;8.30;99.90;;;;;;6214876;23;20491;-86
2023/12/14 11:19:28;;;;;;;24.50;14.90;;;8.30;99.90;;;;;;6214804;23;20421;-86
2023/12/14 11:21:57;;;;;;;26.27;14.70;;;8.40;99.90;;;;;;6214896;23;20833;-86
2023/12/14 11:24:23;;;;;;;33.30;19.90;;;8.50;99.90;;;;;;6217475;23;20397;-86
2023/12/14 11:26:49;;;;;;;31.70;20.27;;;8.50;99.90;;;;;;6215292;23;20421;-86
2023/12/14 11:29:16;;;;;;;34.13;19.87;;;8.60;99.90;;;;;;6213973;23;20726;-86
2023/12/14 11:31:42;;;;;;;30.30;18.60;;;8.60;1.00;;;;;;6213818;23;20383;-85
2023/12/14 11:34:07;;;;;;;24.70;15.70;;;8.60;1.00;;;;;;6215852;23;20405;-86
2023/12/14 11:36:33;;;;;;;22.10;13.50;;;8.60;1.00;;;;;;6217153;23;20266;-86
2023/12/14 11:38:59;;;;;;;21.47;13.23;;;8.60;1.00;;;;;;6216471;23;20232;-85
2023/12/14 11:41:25;;;;;;;20.17;12.83;;;8.60;1.00;;;;;;6217144;23;20381;-86
2023/12/14 11:43:51;;;;;;;24.00;12.57;;;8.60;1.00;;;;;;6217439;23;20154;-86
2023/12/14 11:46:17;;;;;;;24.13;15.27;;;8.60;1.00;;;;;;6215892;23;20423;-86
2023/12/14 11:48:48;;;;;;;22.23;13.77;;;8.60;1.00;;;;;;6214730;23;20393;-86
2023/12/14 11:51:15;;;;;;;19.83;12.57;;;8.60;99.90;;;;;;6218016;23;20374;-85
2023/12/14 11:53:48;;;;;;;18.33;12.00;;;8.60;99.90;;;;;;6219143;23;20381;-86
2023/12/14 11:56:16;;;;;;;17.37;11.30;;;8.60;99.90;;;;;;6216445;23;20846;-86
2023/12/14 11:58:43;;;;;;;22.30;13.90;;;8.60;31.20;;;;;;6217844;23;20384;-85
2023/12/14 12:01:16;;;;;;;20.53;12.10;;;8.50;1.00;;;;;;6216735;23;20422;-85
2023/12/14 12:03:45;;;;;;;19.70;11.47;;;8.50;99.90;;;;;;6216638;23;20377;-86
2023/12/14 12:06:25;;;;;;;15.67;10.77;;;8.60;99.90;;;;;;6215684;23;20421;-86
2023/12/14 12:08:51;;;;;;;17.70;9.87;;;8.70;99.90;;;;;;6213555;23;20385;-85
2023/12/14 12:11:18;;;;;;;17.73;11.07;;;8.60;1.00;;;;;;6213971;23;20439;-86
2023/12/14 12:13:44;;;;;;;14.27;10.17;;;8.70;95.70;;;;;;6213532;23;20388;-85
2023/12/14 12:16:09;;;;;;;16.20;10.30;;;8.60;99.90;;;;;;6217108;23;20397;-85
2023/12/14 12:18:35;;;;;;;16.40;11.40;;;8.60;99.90;;;;;;6220408;23;20237;-85
2023/12/14 12:21:03;;;;;;;19.13;11.23;;;8.50;1.00;;;;;;6218461;23;20155;-85
2023/12/14 12:23:29;;;;;;;15.30;10.20;;;8.50;99.90;;;;;;6221321;23;20161;-86
2023/12/14 12:25:55;;;;;;;17.23;11.30;;;8.40;1.00;;;;;;6221749;23;20428;-85
2023/12/14 12:28:21;;;;;;;19.77;11.63;;;8.30;99.20;;;;;;6222440;23;20464;-85
2023/12/14 12:30:47;;;;;;;19.80;10.47;;;8.10;1.00;;;;;;6216764;23;20153;-86
2023/12/14 12:33:13;;;;;;;16.40;10.53;;;8.00;1.00;;;;;;6220684;23;20377;-86
2023/12/14 12:35:38;;;;;;;18.90;11.87;;;8.00;1.00;;;;;;6215546;23;20217;-86
2023/12/14 12:38:04;;;;;;;18.83;12.00;;;7.90;65.50;;;;;;6217469;23;20501;-85
2023/12/14 12:40:33;;;;;;;20.17;12.13;;;7.90;99.90;;;;;;6217195;23;20151;-85